Time;durP1;ratioP1;P1;durP2;ratioP2;P2;SDS_P1;SDS_P2;PMS_P1;PMS_P2;Temp;Humidity;BMP_temperature;BMP_pressure;BME280_temperature;BME280_humidity;BME280_pressure;Samples;Min_cycle;Max_cycle;Signal;HPM_P1;HPM_P2
2022/09/20 00:01:08;;;;;;;4.93;0.77;;;;;;;;;;5048255;28;20044;-58
2022/09/20 00:03:35;;;;;;;5.40;0.60;;;;;;;;;;5048361;28;20099;-57
2022/09/20 00:06:02;;;;;;;15.57;1.55;;;;;;;;;;5047885;28;20136;-58
2022/09/20 00:08:28;;;;;;;3.83;0.93;;;;;;;;;;5048015;28;20040;-57
2022/09/20 00:11:00;;;;;;;10.30;0.80;;;;;;;;;;5047754;28;20057;-56
2022/09/20 00:13:26;;;;;;;11.02;1.52;;;;;;;;;;5034550;28;20061;-58
2022/09/20 00:15:53;;;;;;;6.57;0.77;;;;;;;;;;5048001;28;20131;-55
2022/09/20 00:18:19;;;;;;;10.77;0.80;;;;;;;;;;5048024;28;20040;-57
2022/09/20 00:20:46;;;;;;;10.48;2.22;;;;;;;;;;5047019;28;20383;-58
2022/09/20 00:23:12;;;;;;;7.22;0.68;;;;;;;;;;5047561;28;20398;-57
2022/09/20 00:25:38;;;;;;;5.70;0.77;;;;;;;;;;5047586;28;20106;-57
2022/09/20 00:28:04;;;;;;;5.57;0.93;;;;;;;;;;5047038;28;20037;-58
2022/09/20 00:30:32;;;;;;;6.15;0.75;;;;;;;;;;5047374;28;20045;-57
2022/09/20 00:32:58;;;;;;;5.10;0.65;;;;;;;;;;5048376;28;20041;-58
2022/09/20 00:35:24;;;;;;;4.20;0.77;;;;;;;;;;5046871;28;20383;-57
2022/09/20 00:37:50;;;;;;;5.57;0.80;;;;;;;;;;5046186;28;20498;-58
2022/09/20 00:40:19;;;;;;;8.38;0.90;;;;;;;;;;5047484;28;20449;-57
2022/09/20 00:42:46;;;;;;;11.88;1.52;;;;;;;;;;5045990;28;20056;-56
2022/09/20 00:45:21;;;;;;;9.88;0.80;;;;;;;;;;5048034;28;20037;-58
2022/09/20 00:47:49;;;;;;;8.82;0.60;;;;;;;;;;5047216;28;20043;-57
2022/09/20 00:50:22;;;;;;;10.07;1.35;;;;;;;;;;5047029;28;20063;-58
2022/09/20 00:52:49;;;;;;;6.68;0.70;;;;;;;;;;5047151;28;20112;-56
2022/09/20 00:55:16;;;;;;;8.57;0.70;;;;;;;;;;5047604;28;20522;-58
2022/09/20 00:57:43;;;;;;;4.55;0.60;;;;;;;;;;5047306;28;20407;-57
2022/09/20 01:00:10;;;;;;;6.88;0.90;;;;;;;;;;5047206;28;20040;-58
2022/09/20 01:02:39;;;;;;;6.63;0.60;;;;;;;;;;5046984;28;20107;-58
2022/09/20 01:05:07;;;;;;;6.28;0.80;;;;;;;;;;5047557;28;20482;-58
2022/09/20 01:07:33;;;;;;;5.60;0.90;;;;;;;;;;5046106;28;20124;-58
2022/09/20 01:09:59;;;;;;;7.97;0.50;;;;;;;;;;5047569;28;20110;-58
2022/09/20 01:12:28;;;;;;;4.57;0.60;;;;;;;;;;5046948;28;20057;-57
2022/09/20 01:14:54;;;;;;;4.90;0.63;;;;;;;;;;5047144;28;20103;-57
2022/09/20 01:17:22;;;;;;;10.52;1.40;;;;;;;;;;5047534;28;20759;-58
2022/09/20 01:20:06;;;;;;;5.38;0.98;;;;;;;;;;5047112;28;20147;-57
2022/09/20 01:22:43;;;;;;;6.82;0.73;;;;;;;;;;5028441;28;20487;-59
2022/09/20 01:25:15;;;;;;;7.28;1.00;;;;;;;;;;5047195;28;20128;-57
2022/09/20 01:27:45;;;;;;;6.18;0.52;;;;;;;;;;5047000;28;20124;-57
2022/09/20 01:30:13;;;;;;;3.30;0.68;;;;;;;;;;5044069;28;20041;-57
2022/09/20 01:32:51;;;;;;;7.22;0.80;;;;;;;;;;5041940;28;20041;-57
2022/09/20 01:35:23;;;;;;;6.80;0.65;;;;;;;;;;5033147;28;20513;-57
2022/09/20 01:38:05;;;;;;;5.82;0.60;;;;;;;;;;5030016;28;20099;-58
2022/09/20 01:40:39;;;;;;;5.10;0.85;;;;;;;;;;5045345;28;20491;-59
2022/09/20 01:43:11;;;;;;;6.00;0.63;;;;;;;;;;5050936;28;20506;-58
2022/09/20 01:45:40;;;;;;;5.88;0.63;;;;;;;;;;5050580;28;20059;-57
2022/09/20 01:48:09;;;;;;;12.77;1.83;;;;;;;;;;5050735;28;20129;-57
2022/09/20 01:50:45;;;;;;;6.88;0.85;;;;;;;;;;5049645;28;20444;-58
2022/09/20 01:53:29;;;;;;;12.50;1.45;;;;;;;;;;5050718;28;20419;-58
2022/09/20 01:56:02;;;;;;;6.95;0.50;;;;;;;;;;5050601;28;20097;-58
2022/09/20 01:58:45;;;;;;;5.25;0.60;;;;;;;;;;5050571;28;20040;-58
2022/09/20 02:01:18;;;;;;;3.25;0.55;;;;;;;;;;5050643;28;20056;-56
2022/09/20 02:03:45;;;;;;;5.25;1.15;;;;;;;;;;5036943;28;20068;-57
2022/09/20 02:06:33;;;;;;;12.73;0.93;;;;;;;;;;5049502;28;20041;-57
2022/09/20 02:09:21;;;;;;;2.65;0.82;;;;;;;;;;5050163;28;20041;-58
2022/09/20 02:12:05;;;;;;;11.15;2.53;;;;;;;;;;5049402;28;20065;-56
2022/09/20 02:14:40;;;;;;;8.15;1.08;;;;;;;;;;5050495;28;20045;-57
2022/09/20 02:17:12;;;;;;;3.40;0.60;;;;;;;;;;5136319;22;20476;-58
2022/09/20 02:19:46;;;;;;;13.50;1.00;;;;;;;;;;5090256;28;20485;-57
2022/09/20 02:22:23;;;;;;;7.32;1.27;;;;;;;;;;5072163;28;20045;-57
2022/09/20 02:24:56;;;;;;;11.98;0.85;;;;;;;;;;5081638;28;20552;-57
2022/09/20 02:27:25;;;;;;;9.98;1.23;;;;;;;;;;5079280;28;20071;-57
2022/09/20 02:30:08;;;;;;;9.18;0.80;;;;;;;;;;5075627;28;20052;-57
2022/09/20 02:32:41;;;;;;;4.43;0.55;;;;;;;;;;5070227;28;20056;-56
2022/09/20 02:35:07;;;;;;;6.05;0.70;;;;;;;;;;5071712;28;20075;-57
2022/09/20 02:37:33;;;;;;;6.28;0.75;;;;;;;;;;5089780;28;20044;-57
2022/09/20 02:40:15;;;;;;;4.25;0.77;;;;;;;;;;5088691;28;20032;-58
2022/09/20 02:42:46;;;;;;;7.85;0.77;;;;;;;;;;5080887;28;20101;-57
2022/09/20 02:45:20;;;;;;;8.23;1.02;;;;;;;;;;5090478;28;20115;-57
2022/09/20 02:47:47;;;;;;;7.88;0.90;;;;;;;;;;5079708;28;20048;-57
2022/09/20 02:50:16;;;;;;;9.95;0.73;;;;;;;;;;5085047;28;20040;-58
2022/09/20 02:52:56;;;;;;;8.93;1.08;;;;;;;;;;5059931;28;20515;-57
2022/09/20 02:55:31;;;;;;;5.70;0.70;;;;;;;;;;5070449;28;20056;-57
2022/09/20 02:58:10;;;;;;;9.93;1.05;;;;;;;;;;5069827;28;20425;-57
2022/09/20 03:00:41;;;;;;;4.90;0.52;;;;;;;;;;5069409;28;20525;-56
2022/09/20 03:03:30;;;;;;;11.50;1.00;;;;;;;;;;5069852;28;20044;-57
2022/09/20 03:06:08;;;;;;;4.18;0.90;;;;;;;;;;5068558;28;20044;-56
2022/09/20 03:08:39;;;;;;;4.75;0.77;;;;;;;;;;5068973;28;20058;-58
2022/09/20 03:11:15;;;;;;;13.30;1.20;;;;;;;;;;5051289;28;20565;-57
2022/09/20 03:13:55;;;;;;;4.20;0.60;;;;;;;;;;5083542;28;20361;-58
2022/09/20 03:16:31;;;;;;;6.18;0.80;;;;;;;;;;5069527;28;20057;-56
2022/09/20 03:19:07;;;;;;;5.88;0.90;;;;;;;;;;5069227;28;20123;-59
2022/09/20 03:21:48;;;;;;;4.50;0.70;;;;;;;;;;5068263;28;20044;-58
2022/09/20 03:24:21;;;;;;;4.47;0.55;;;;;;;;;;5069452;28;20123;-57
2022/09/20 03:26:55;;;;;;;6.80;0.50;;;;;;;;;;5068519;28;20067;-58
2022/09/20 03:29:21;;;;;;;5.63;0.70;;;;;;;;;;5069143;28;20052;-58
2022/09/20 03:31:48;;;;;;;3.40;1.40;;;;;;;;;;5068500;28;20508;-56
2022/09/20 03:34:20;;;;;;;4.72;0.73;;;;;;;;;;5069069;28;20037;-56
2022/09/20 03:36:53;;;;;;;6.80;0.82;;;;;;;;;;5068008;28;20052;-57
2022/09/20 03:39:27;;;;;;;6.90;0.93;;;;;;;;;;5068956;28;20199;-58
2022/09/20 03:41:59;;;;;;;10.60;1.05;;;;;;;;;;5068926;28;20449;-57
2022/09/20 03:44:29;;;;;;;6.72;1.02;;;;;;;;;;5051554;28;20048;-58
2022/09/20 03:47:03;;;;;;;4.63;0.50;;;;;;;;;;5068927;28;20093;-57
2022/09/20 03:49:50;;;;;;;7.63;0.60;;;;;;;;;;5068912;28;20040;-57
2022/09/20 03:52:27;;;;;;;4.43;0.50;;;;;;;;;;5068685;28;20075;-57
2022/09/20 03:55:02;;;;;;;8.23;0.90;;;;;;;;;;5068562;28;20047;-56
2022/09/20 03:57:34;;;;;;;7.72;1.00;;;;;;;;;;5068935;28;20115;-58
2022/09/20 04:00:07;;;;;;;4.47;0.50;;;;;;;;;;5068600;28;20094;-58
2022/09/20 04:02:41;;;;;;;7.35;0.55;;;;;;;;;;5068314;28;20409;-58
2022/09/20 04:05:11;;;;;;;1.55;0.57;;;;;;;;;;5067408;28;20566;-57
2022/09/20 04:07:37;;;;;;;5.20;0.57;;;;;;;;;;5067956;28;20048;-57
2022/09/20 04:10:03;;;;;;;4.50;1.00;;;;;;;;;;5068476;28;20121;-57
2022/09/20 04:12:39;;;;;;;7.00;0.70;;;;;;;;;;5050630;28;20481;-58
2022/09/20 04:15:14;;;;;;;5.72;0.60;;;;;;;;;;5067829;28;20139;-58
2022/09/20 04:17:59;;;;;;;5.68;0.95;;;;;;;;;;5067650;28;20127;-58
2022/09/20 04:20:30;;;;;;;5.22;0.60;;;;;;;;;;5067776;28;20045;-57
2022/09/20 04:22:59;;;;;;;2.33;0.60;;;;;;;;;;5067961;28;20112;-58
2022/09/20 04:25:29;;;;;;;7.00;0.55;;;;;;;;;;5068270;28;20444;-57
2022/09/20 04:27:59;;;;;;;2.83;0.50;;;;;;;;;;5067460;28;20474;-56
2022/09/20 04:30:28;;;;;;;2.97;0.68;;;;;;;;;;5082127;28;20040;-58
2022/09/20 04:33:02;;;;;;;3.53;0.55;;;;;;;;;;5067402;28;20119;-57
2022/09/20 04:38:16;;;;;;;3.60;0.60;;;;;;;;;;5067642;28;20040;-58
2022/09/20 04:40:44;;;;;;;3.22;0.50;;;;;;;;;;5067335;28;20055;-58
2022/09/20 04:43:10;;;;;;;1.55;0.70;;;;;;;;;;5068177;28;20452;-58
2022/09/20 04:45:50;;;;;;;8.40;0.82;;;;;;;;;;5067265;28;20070;-58
2022/09/20 04:48:25;;;;;;;5.13;0.95;;;;;;;;;;5067573;28;20054;-56
2022/09/20 04:51:05;;;;;;;2.70;0.60;;;;;;;;;;5065873;28;20128;-58
2022/09/20 04:53:34;;;;;;;2.55;0.57;;;;;;;;;;5067266;28;20601;-59
2022/09/20 04:56:01;;;;;;;2.88;0.60;;;;;;;;;;5067768;28;20143;-58
2022/09/20 04:58:28;;;;;;;6.13;0.57;;;;;;;;;;5067987;28;20032;-57
2022/09/20 05:00:57;;;;;;;6.68;0.77;;;;;;;;;;5066849;28;20045;-57
2022/09/20 05:03:39;;;;;;;9.35;0.70;;;;;;;;;;5067855;28;20047;-57
2022/09/20 05:06:14;;;;;;;3.85;2.00;;;;;;;;;;5082659;28;20044;-56
2022/09/20 05:08:47;;;;;;;3.53;0.50;;;;;;;;;;5086886;28;20114;-57
2022/09/20 05:11:26;;;;;;;1.95;0.52;;;;;;;;;;5064120;28;20048;-56
2022/09/20 05:14:11;;;;;;;4.47;0.60;;;;;;;;;;5087193;28;20083;-57
2022/09/20 05:16:56;;;;;;;2.75;0.60;;;;;;;;;;5088285;28;20093;-58
2022/09/20 05:19:33;;;;;;;3.95;0.55;;;;;;;;;;5080627;28;20504;-57
2022/09/20 05:22:12;;;;;;;7.63;0.70;;;;;;;;;;5088157;28;20127;-57
2022/09/20 05:24:51;;;;;;;1.95;0.40;;;;;;;;;;5070105;28;20369;-57
2022/09/20 05:27:28;;;;;;;2.85;0.70;;;;;;;;;;5088898;28;20465;-58
2022/09/20 05:30:01;;;;;;;8.75;0.50;;;;;;;;;;5088602;28;20851;-57
2022/09/20 05:32:36;;;;;;;6.78;1.17;;;;;;;;;;5090565;28;20051;-56
2022/09/20 05:35:03;;;;;;;6.57;0.73;;;;;;;;;;5089921;28;21757;-57
2022/09/20 05:37:43;;;;;;;2.75;0.60;;;;;;;;;;5089051;28;20044;-57
2022/09/20 05:40:17;;;;;;;1.73;0.68;;;;;;;;;;5070725;28;20040;-58
2022/09/20 05:42:49;;;;;;;5.88;0.68;;;;;;;;;;5086403;28;20052;-57
2022/09/20 05:45:20;;;;;;;5.13;0.60;;;;;;;;;;5085718;28;20118;-57
2022/09/20 05:47:52;;;;;;;12.35;1.60;;;;;;;;;;5087837;28;20494;-56
2022/09/20 05:50:29;;;;;;;3.30;0.40;;;;;;;;;;5087276;28;20040;-57
2022/09/20 05:53:01;;;;;;;1.42;0.60;;;;;;;;;;5089102;28;20058;-56
2022/09/20 05:55:46;;;;;;;5.93;0.70;;;;;;;;;;5090597;28;20233;-57
2022/09/20 05:58:27;;;;;;;6.45;0.98;;;;;;;;;;5077537;28;20093;-56
2022/09/20 06:00:59;;;;;;;6.53;0.80;;;;;;;;;;5084073;28;20059;-58
2022/09/20 06:03:46;;;;;;;8.63;0.80;;;;;;;;;;5077944;28;20448;-57
2022/09/20 06:06:14;;;;;;;5.45;0.98;;;;;;;;;;5092780;28;20397;-56
2022/09/20 06:08:42;;;;;;;2.97;0.63;;;;;;;;;;5092248;28;20083;-57
2022/09/20 06:11:13;;;;;;;4.90;0.60;;;;;;;;;;5089811;28;20051;-58
2022/09/20 06:13:45;;;;;;;10.45;0.65;;;;;;;;;;5093373;28;20032;-57
2022/09/20 06:16:17;;;;;;;2.78;0.43;;;;;;;;;;5089885;28;20085;-57
2022/09/20 06:18:47;;;;;;;5.18;1.23;;;;;;;;;;5093322;28;20043;-57
2022/09/20 06:21:30;;;;;;;6.10;0.70;;;;;;;;;;5092235;28;20047;-57
2022/09/20 06:23:59;;;;;;;2.92;0.60;;;;;;;;;;5093390;28;20055;-56
2022/09/20 06:26:27;;;;;;;2.65;0.52;;;;;;;;;;5092680;28;20126;-57
2022/09/20 06:28:55;;;;;;;5.40;0.68;;;;;;;;;;5089849;28;20036;-57
2022/09/20 06:31:21;;;;;;;3.55;0.73;;;;;;;;;;5089647;28;20669;-57
2022/09/20 06:33:52;;;;;;;2.50;0.70;;;;;;;;;;5089498;28;20539;-57
2022/09/20 06:42:03;;;;;;;3.10;0.55;;;;;;;;;;5084975;28;20045;-57
2022/09/20 06:44:30;;;;;;;2.97;0.95;;;;;;;;;;5065362;28;20493;-57
2022/09/20 06:46:56;;;;;;;3.72;0.68;;;;;;;;;;5086200;28;20036;-57
2022/09/20 06:49:23;;;;;;;4.95;0.68;;;;;;;;;;5079686;28;20056;-56
2022/09/20 06:51:49;;;;;;;2.53;0.60;;;;;;;;;;5085812;28;20047;-57
2022/09/20 06:54:17;;;;;;;6.38;0.73;;;;;;;;;;5086603;28;20389;-56
2022/09/20 06:56:44;;;;;;;3.42;0.50;;;;;;;;;;5085514;28;20043;-57
2022/09/20 06:59:11;;;;;;;4.53;0.60;;;;;;;;;;5088177;28;20047;-57
2022/09/20 07:01:38;;;;;;;4.78;0.70;;;;;;;;;;5086424;28;20044;-57
2022/09/20 07:04:05;;;;;;;7.88;0.60;;;;;;;;;;5087702;28;20090;-57
2022/09/20 07:06:32;;;;;;;9.75;0.95;;;;;;;;;;5084072;28;20041;-57
2022/09/20 07:08:59;;;;;;;11.05;1.00;;;;;;;;;;5086855;28;20700;-57
2022/09/20 07:11:25;;;;;;;3.67;0.70;;;;;;;;;;5084078;28;20489;-57
2022/09/20 07:13:52;;;;;;;4.38;0.70;;;;;;;;;;5085088;28;20048;-57
2022/09/20 07:16:19;;;;;;;7.53;1.05;;;;;;;;;;5086509;28;20063;-57
2022/09/20 07:18:46;;;;;;;4.15;0.70;;;;;;;;;;5084887;28;20150;-57
2022/09/20 07:21:12;;;;;;;3.03;0.90;;;;;;;;;;5085974;28;20045;-57
2022/09/20 07:23:39;;;;;;;6.22;0.85;;;;;;;;;;5083688;28;20455;-57
2022/09/20 07:26:05;;;;;;;2.65;0.80;;;;;;;;;;5085882;28;20044;-57
2022/09/20 07:28:32;;;;;;;5.55;0.77;;;;;;;;;;5086478;28;20040;-59
2022/09/20 07:30:58;;;;;;;3.92;0.73;;;;;;;;;;5085090;28;20516;-57
2022/09/20 07:33:24;;;;;;;5.93;0.73;;;;;;;;;;5085564;28;20122;-58
2022/09/20 07:35:53;;;;;;;5.47;0.73;;;;;;;;;;5083553;28;20064;-56
2022/09/20 07:38:20;;;;;;;4.05;0.95;;;;;;;;;;5084871;28;20059;-57
2022/09/20 07:40:46;;;;;;;3.88;1.00;;;;;;;;;;5087773;28;20174;-57
2022/09/20 07:43:12;;;;;;;4.95;0.80;;;;;;;;;;5085115;28;20040;-57
2022/09/20 07:45:38;;;;;;;5.95;0.73;;;;;;;;;;5085135;28;20431;-57
2022/09/20 07:48:06;;;;;;;4.35;0.63;;;;;;;;;;5084258;28;20477;-56
2022/09/20 07:50:33;;;;;;;8.07;1.73;;;;;;;;;;5083185;28;20048;-58
2022/09/20 07:52:59;;;;;;;6.55;0.70;;;;;;;;;;5087170;28;20091;-57
2022/09/20 07:55:25;;;;;;;6.03;0.60;;;;;;;;;;5085078;28;20047;-56
2022/09/20 07:57:53;;;;;;;5.78;0.70;;;;;;;;;;5085545;28;20143;-57
2022/09/20 08:00:19;;;;;;;2.73;0.40;;;;;;;;;;5084545;28;20044;-57
2022/09/20 08:02:45;;;;;;;6.38;0.80;;;;;;;;;;5083548;28;20040;-57
2022/09/20 08:05:11;;;;;;;6.65;0.90;;;;;;;;;;5087108;28;20119;-58
2022/09/20 08:07:38;;;;;;;5.78;1.00;;;;;;;;;;5083898;28;20052;-57
2022/09/20 08:10:04;;;;;;;4.07;0.52;;;;;;;;;;5086050;28;20048;-55
2022/09/20 08:12:32;;;;;;;4.45;0.60;;;;;;;;;;5084379;28;20062;-57
2022/09/20 08:15:00;;;;;;;2.13;0.47;;;;;;;;;;5083320;28;20051;-56
2022/09/20 08:17:27;;;;;;;5.55;0.40;;;;;;;;;;5087761;28;20059;-57
2022/09/20 08:19:53;;;;;;;7.22;0.68;;;;;;;;;;5081762;28;20608;-56
2022/09/20 08:22:20;;;;;;;2.05;0.50;;;;;;;;;;5086709;28;20032;-55
2022/09/20 08:24:47;;;;;;;4.40;0.57;;;;;;;;;;5078757;28;20170;-57
2022/09/20 08:27:13;;;;;;;7.35;0.70;;;;;;;;;;5085695;28;20082;-56
2022/09/20 08:29:39;;;;;;;3.03;0.60;;;;;;;;;;5068822;28;20476;-56
2022/09/20 08:32:05;;;;;;;4.55;0.45;;;;;;;;;;5083015;28;20127;-57
2022/09/20 08:34:32;;;;;;;7.80;0.50;;;;;;;;;;5086422;28;20091;-57
2022/09/20 08:36:58;;;;;;;2.92;0.50;;;;;;;;;;5063901;28;20033;-57
2022/09/20 08:39:25;;;;;;;2.78;0.35;;;;;;;;;;5086196;28;20040;-57
2022/09/20 08:42:11;;;;;;;5.55;0.95;;;;;;;;;;5080764;28;20047;-56
2022/09/20 08:44:40;;;;;;;3.58;0.60;;;;;;;;;;5083824;28;20052;-56
2022/09/20 08:47:12;;;;;;;4.05;0.70;;;;;;;;;;5083820;28;20044;-57
2022/09/20 08:49:39;;;;;;;4.93;0.47;;;;;;;;;;5083896;28;20040;-56
2022/09/20 08:52:06;;;;;;;5.13;0.50;;;;;;;;;;5084367;28;20055;-57
2022/09/20 08:54:33;;;;;;;3.35;0.38;;;;;;;;;;5079906;28;20479;-57
2022/09/20 08:57:04;;;;;;;4.13;0.50;;;;;;;;;;5086100;28;20070;-57
2022/09/20 08:59:31;;;;;;;2.53;0.38;;;;;;;;;;5083862;28;20174;-56
2022/09/20 09:01:58;;;;;;;3.85;0.30;;;;;;;;;;5081729;28;20036;-57
2022/09/20 09:04:31;;;;;;;4.43;0.43;;;;;;;;;;5083466;28;20122;-55
2022/09/20 09:06:57;;;;;;;3.88;0.35;;;;;;;;;;5083554;28;20028;-58
2022/09/20 09:09:26;;;;;;;4.28;0.40;;;;;;;;;;5084714;28;20677;-57
2022/09/20 09:11:53;;;;;;;6.20;0.60;;;;;;;;;;5083761;28;20054;-57
2022/09/20 09:17:13;;;;;;;4.45;0.40;;;;;;;;;;5081152;28;20662;-56
2022/09/20 09:19:45;;;;;;;2.60;0.20;;;;;;;;;;5082354;28;20052;-57
2022/09/20 09:22:17;;;;;;;1.83;0.40;;;;;;;;;;5087029;28;20048;-56
2022/09/20 09:24:43;;;;;;;3.17;0.30;;;;;;;;;;5082829;28;20126;-57
2022/09/20 09:27:18;;;;;;;6.28;0.35;;;;;;;;;;5085887;28;20128;-56
2022/09/20 09:29:51;;;;;;;4.97;0.50;;;;;;;;;;5082533;28;20156;-57
2022/09/20 09:32:20;;;;;;;4.32;0.50;;;;;;;;;;5085155;28;20040;-58
2022/09/20 09:34:46;;;;;;;4.97;0.50;;;;;;;;;;5085606;28;20051;-56
2022/09/20 09:37:22;;;;;;;3.85;0.40;;;;;;;;;;5083459;28;20044;-57
2022/09/20 09:40:04;;;;;;;8.32;0.50;;;;;;;;;;5085936;28;20393;-56
2022/09/20 09:42:31;;;;;;;8.40;0.57;;;;;;;;;;5083413;28;20040;-57
2022/09/20 09:45:11;;;;;;;4.43;0.50;;;;;;;;;;5086710;28;20055;-55
2022/09/20 09:47:37;;;;;;;7.20;0.30;;;;;;;;;;5082203;28;20044;-57
2022/09/20 09:50:04;;;;;;;3.92;0.52;;;;;;;;;;5084625;28;20504;-56
2022/09/20 09:52:32;;;;;;;5.97;0.60;;;;;;;;;;5084599;28;20123;-58
2022/09/20 09:55:00;;;;;;;3.67;0.47;;;;;;;;;;5084065;28;20185;-56
2022/09/20 09:57:32;;;;;;;3.13;0.20;;;;;;;;;;5067223;28;20044;-56
2022/09/20 10:00:04;;;;;;;6.93;0.95;;;;;;;;;;5082269;28;20036;-57
2022/09/20 10:02:40;;;;;;;15.43;0.80;;;;;;;;;;5086799;28;20044;-57
2022/09/20 10:05:26;;;;;;;3.70;0.32;;;;;;;;;;5086565;28;20115;-56
2022/09/20 10:08:09;;;;;;;7.95;1.05;;;;;;;;;;5087732;28;20058;-58
2022/09/20 10:10:56;;;;;;;4.20;0.75;;;;;;;;;;5086281;28;20036;-57
2022/09/20 10:13:29;;;;;;;4.15;0.30;;;;;;;;;;5087003;28;20044;-57
2022/09/20 10:15:58;;;;;;;2.80;0.45;;;;;;;;;;5085468;28;20390;-56
2022/09/20 10:18:25;;;;;;;5.10;0.40;;;;;;;;;;5085998;28;20077;-57
2022/09/20 10:21:07;;;;;;;5.45;0.38;;;;;;;;;;5088703;28;20119;-57
2022/09/20 10:23:41;;;;;;;2.20;0.30;;;;;;;;;;5084652;28;20047;-57
2022/09/20 10:26:10;;;;;;;4.07;0.40;;;;;;;;;;5089411;28;20043;-56
2022/09/20 10:28:47;;;;;;;3.30;0.40;;;;;;;;;;5083129;28;20041;-57
2022/09/20 10:31:13;;;;;;;2.25;0.28;;;;;;;;;;5088294;28;20481;-56
2022/09/20 10:33:45;;;;;;;1.65;0.70;;;;;;;;;;5081536;28;20041;-58
2022/09/20 10:36:11;;;;;;;4.50;0.32;;;;;;;;;;5087688;28;20038;-56
2022/09/20 10:38:45;;;;;;;2.38;0.65;;;;;;;;;;5085215;28;20213;-57
2022/09/20 10:44:19;;;;;;;4.20;0.45;;;;;;;;;;5081814;28;20148;-56
2022/09/20 10:46:45;;;;;;;0.40;0.20;;;;;;;;;;5086031;28;20036;-56
2022/09/20 10:49:11;;;;;;;5.60;1.00;;;;;;;;;;5087634;28;20072;-57
2022/09/20 10:51:51;;;;;;;7.88;0.50;;;;;;;;;;5084854;28;20138;-57
2022/09/20 10:54:27;;;;;;;3.90;0.38;;;;;;;;;;5085382;28;20060;-57
2022/09/20 10:56:58;;;;;;;1.17;0.30;;;;;;;;;;5085972;28;20511;-57
2022/09/20 10:59:33;;;;;;;1.85;0.30;;;;;;;;;;5086574;28;20040;-56
2022/09/20 11:02:07;;;;;;;1.90;0.22;;;;;;;;;;5085516;28;20612;-57
2022/09/20 11:04:42;;;;;;;2.60;0.30;;;;;;;;;;5084370;28;20063;-57
2022/09/20 11:07:09;;;;;;;1.98;0.60;;;;;;;;;;5089136;28;20032;-57
2022/09/20 11:09:37;;;;;;;1.80;0.40;;;;;;;;;;5083535;28;20040;-57
2022/09/20 11:12:04;;;;;;;2.13;0.65;;;;;;;;;;5088702;28;20047;-57
2022/09/20 11:14:36;;;;;;;3.47;0.40;;;;;;;;;;5081302;28;20066;-56
2022/09/20 11:17:08;;;;;;;4.30;0.50;;;;;;;;;;5085306;28;20060;-57
2022/09/20 11:19:41;;;;;;;7.68;0.65;;;;;;;;;;5084705;28;20101;-58
2022/09/20 11:22:12;;;;;;;2.92;0.30;;;;;;;;;;5082971;28;20109;-57
2022/09/20 11:24:42;;;;;;;6.07;0.50;;;;;;;;;;5084602;28;20036;-57
2022/09/20 11:27:15;;;;;;;1.38;0.32;;;;;;;;;;5080600;28;20089;-57
2022/09/20 11:29:45;;;;;;;5.13;1.05;;;;;;;;;;5081373;28;20047;-57
2022/09/20 11:32:13;;;;;;;4.50;0.50;;;;;;;;;;5079009;28;20078;-57
2022/09/20 11:34:47;;;;;;;3.78;0.52;;;;;;;;;;5083124;28;20040;-57
2022/09/20 11:37:14;;;;;;;7.25;0.50;;;;;;;;;;5081016;28;20080;-57
2022/09/20 11:39:50;;;;;;;5.55;0.43;;;;;;;;;;5083429;28;20040;-57
2022/09/20 11:42:19;;;;;;;5.45;0.93;;;;;;;;;;5084898;28;20515;-57
2022/09/20 11:44:45;;;;;;;5.93;0.70;;;;;;;;;;5080525;28;20055;-58
2022/09/20 11:47:17;;;;;;;4.25;0.40;;;;;;;;;;5083442;28;20043;-57
2022/09/20 11:49:43;;;;;;;7.53;0.50;;;;;;;;;;5083028;28;20051;-57
2022/09/20 11:52:25;;;;;;;4.75;0.43;;;;;;;;;;5082872;28;20051;-56
2022/09/20 11:54:54;;;;;;;8.38;0.47;;;;;;;;;;5087680;28;20758;-56
2022/09/20 11:57:21;;;;;;;7.20;0.52;;;;;;;;;;5084990;28;20124;-56
2022/09/20 11:59:55;;;;;;;4.15;0.30;;;;;;;;;;5085124;28;20506;-57
2022/09/20 12:02:29;;;;;;;6.80;0.40;;;;;;;;;;5084552;28;20118;-57
2022/09/20 12:04:55;;;;;;;5.38;0.60;;;;;;;;;;5083647;28;20123;-57
2022/09/20 12:07:23;;;;;;;5.03;0.40;;;;;;;;;;5087968;28;20559;-57
2022/09/20 12:09:49;;;;;;;;;;;;;;;;;;5082809;28;20040;-57
2022/09/20 12:12:29;;;;;;;2.83;0.30;;;;;;;;;;5087455;28;19920;-57
2022/09/20 12:14:57;;;;;;;1.83;0.20;;;;;;;;;;5081912;28;20032;-57
2022/09/20 12:17:41;;;;;;;3.22;0.40;;;;;;;;;;5086379;28;20547;-58
2022/09/20 12:20:26;;;;;;;2.17;0.40;;;;;;;;;;5084226;28;20075;-57
2022/09/20 12:22:52;;;;;;;4.43;0.43;;;;;;;;;;5085841;28;20729;-57
2022/09/20 12:25:34;;;;;;;7.40;0.60;;;;;;;;;;5083430;28;20079;-57
2022/09/20 12:28:00;;;;;;;4.18;0.40;;;;;;;;;;5085897;28;20150;-55
2022/09/20 12:30:27;;;;;;;5.53;0.40;;;;;;;;;;5083136;28;20063;-57
2022/09/20 12:32:56;;;;;;;4.45;0.60;;;;;;;;;;5084945;28;20059;-57
2022/09/20 12:35:35;;;;;;;6.53;0.40;;;;;;;;;;5083888;28;20094;-57
2022/09/20 12:38:19;;;;;;;1.45;0.22;;;;;;;;;;5087547;28;20051;-55
2022/09/20 12:40:59;;;;;;;4.82;0.35;;;;;;;;;;5086307;28;20047;-56
2022/09/20 12:43:27;;;;;;;7.32;0.40;;;;;;;;;;5082176;28;20043;-57
2022/09/20 12:45:54;;;;;;;7.85;0.40;;;;;;;;;;5066758;28;20043;-56
2022/09/20 12:48:21;;;;;;;4.00;0.60;;;;;;;;;;5082668;28;20059;-57
2022/09/20 12:53:58;;;;;;;6.13;0.40;;;;;;;;;;5083401;28;20048;-56
2022/09/20 12:56:26;;;;;;;3.28;0.55;;;;;;;;;;5082272;28;20579;-57
2022/09/20 12:58:54;;;;;;;5.10;0.57;;;;;;;;;;5084317;28;20051;-58
2022/09/20 13:01:21;;;;;;;3.75;0.43;;;;;;;;;;5086312;28;20140;-57
2022/09/20 13:03:48;;;;;;;2.80;0.30;;;;;;;;;;5080336;28;20053;-57
2022/09/20 13:06:16;;;;;;;6.60;0.93;;;;;;;;;;5086082;28;20055;-56
2022/09/20 13:08:52;;;;;;;7.73;0.40;;;;;;;;;;5080316;28;20739;-56
2022/09/20 13:11:19;;;;;;;4.60;0.40;;;;;;;;;;5084149;28;20063;-57
2022/09/20 13:13:49;;;;;;;4.70;0.30;;;;;;;;;;5081452;28;20059;-57
2022/09/20 13:16:21;;;;;;;2.95;0.57;;;;;;;;;;5082384;28;20113;-57
2022/09/20 13:18:50;;;;;;;3.03;0.40;;;;;;;;;;5082299;28;20081;-58
2022/09/20 13:21:16;;;;;;;6.38;0.35;;;;;;;;;;5084743;28;20044;-57
2022/09/20 13:23:45;;;;;;;3.40;0.40;;;;;;;;;;5083961;28;20092;-57
2022/09/20 13:26:12;;;;;;;3.30;0.40;;;;;;;;;;5080736;28;20036;-57
2022/09/20 13:28:43;;;;;;;2.50;0.30;;;;;;;;;;5084679;28;20048;-57
2022/09/20 13:31:21;;;;;;;6.88;0.30;;;;;;;;;;5085481;28;20036;-57
2022/09/20 13:33:48;;;;;;;4.95;0.20;;;;;;;;;;5079840;28;20036;-57
2022/09/20 13:36:14;;;;;;;3.42;0.30;;;;;;;;;;5081664;28;20080;-58
2022/09/20 13:38:42;;;;;;;4.60;0.40;;;;;;;;;;5086272;28;20044;-57
2022/09/20 13:41:09;;;;;;;5.25;0.40;;;;;;;;;;5090541;28;20051;-57
2022/09/20 13:43:37;;;;;;;1.20;0.17;;;;;;;;;;5086817;28;20028;-58
2022/09/20 13:46:03;;;;;;;;;;;;;;;;;;5074065;28;20098;-57
2022/09/20 13:48:30;;;;;;;4.78;0.30;;;;;;;;;;5089768;28;20385;-57
2022/09/20 13:50:57;;;;;;;2.53;0.60;;;;;;;;;;5088964;28;20048;-57
2022/09/20 13:53:24;;;;;;;1.15;0.15;;;;;;;;;;5090117;28;20040;-57
2022/09/20 13:55:50;;;;;;;3.65;0.40;;;;;;;;;;5086014;28;20048;-57
2022/09/20 13:58:23;;;;;;;2.35;0.20;;;;;;;;;;5089730;28;20097;-57
2022/09/20 14:00:53;;;;;;;3.88;0.38;;;;;;;;;;5086208;28;20035;-56
2022/09/20 14:03:19;;;;;;;5.38;0.40;;;;;;;;;;5087423;28;20051;-57
2022/09/20 14:05:48;;;;;;;4.47;0.30;;;;;;;;;;5086468;28;20535;-57
2022/09/20 14:08:19;;;;;;;3.20;0.20;;;;;;;;;;5086460;28;20032;-57
2022/09/20 14:10:46;;;;;;;1.50;0.20;;;;;;;;;;5085590;28;20493;-57
2022/09/20 14:13:18;;;;;;;4.65;0.52;;;;;;;;;;5082140;28;20083;-58
2022/09/20 14:15:45;;;;;;;2.80;0.95;;;;;;;;;;5084364;28;20467;-58
2022/09/20 14:18:14;;;;;;;2.38;0.20;;;;;;;;;;5066110;28;20051;-57
2022/09/20 14:20:42;;;;;;;3.25;0.30;;;;;;;;;;5084379;28;20478;-57
2022/09/20 14:23:24;;;;;;;6.05;0.30;;;;;;;;;;5083367;28;20074;-57
2022/09/20 14:26:07;;;;;;;6.30;0.47;;;;;;;;;;5077340;28;20036;-57
2022/09/20 14:28:34;;;;;;;0.90;0.20;;;;;;;;;;5082471;28;20032;-55
2022/09/20 14:31:07;;;;;;;2.28;0.30;;;;;;;;;;5089046;28;20073;-57
2022/09/20 14:33:40;;;;;;;2.45;0.20;;;;;;;;;;5081083;28;20040;-58
2022/09/20 14:36:11;;;;;;;3.20;0.30;;;;;;;;;;5081612;28;20048;-58
2022/09/20 14:38:37;;;;;;;2.72;0.15;;;;;;;;;;5081356;28;20054;-56
2022/09/20 14:41:03;;;;;;;2.05;0.20;;;;;;;;;;5073472;28;20053;-58
2022/09/20 14:43:31;;;;;;;2.38;0.25;;;;;;;;;;5079336;28;20091;-60
2022/09/20 14:46:01;;;;;;;3.35;0.30;;;;;;;;;;5077145;28;20048;-57
2022/09/20 14:48:34;;;;;;;9.15;0.70;;;;;;;;;;5071784;28;20033;-58
2022/09/20 14:51:09;;;;;;;4.40;0.40;;;;;;;;;;5077987;28;20056;-57
2022/09/20 14:53:37;;;;;;;3.20;0.32;;;;;;;;;;5073105;28;20051;-56
2022/09/20 14:56:04;;;;;;;4.72;0.68;;;;;;;;;;5080337;28;20044;-57
2022/09/20 14:58:30;;;;;;;4.57;0.40;;;;;;;;;;5089732;28;20171;-56
2022/09/20 15:01:01;;;;;;;2.97;0.50;;;;;;;;;;5084983;28;20474;-56
2022/09/20 15:03:30;;;;;;;6.75;0.60;;;;;;;;;;5083223;28;20044;-57
2022/09/20 15:05:56;;;;;;;7.28;0.52;;;;;;;;;;5085727;28;20028;-56
2022/09/20 15:08:23;;;;;;;4.70;0.35;;;;;;;;;;5087243;28;20040;-56
2022/09/20 15:10:49;;;;;;;3.42;0.30;;;;;;;;;;5088369;28;20044;-56
2022/09/20 15:13:16;;;;;;;8.25;0.43;;;;;;;;;;5088658;28;20064;-57
2022/09/20 15:15:43;;;;;;;2.17;0.30;;;;;;;;;;5088126;28;20040;-57
2022/09/20 15:18:21;;;;;;;5.90;0.40;;;;;;;;;;5087573;28;20083;-57
2022/09/20 15:20:49;;;;;;;3.92;0.20;;;;;;;;;;5086536;28;20469;-57
2022/09/20 15:23:15;;;;;;;3.53;0.40;;;;;;;;;;5085248;28;20043;-56